»·PEaware :: N441PW CYXS-CYVR

N441PW :: CYXS-CYVR

FLIGHT INFORMATION

Flight Status: Arrived
Operator: Privately registered:
United States
More flights under this callsign
Pilot: Stacy K. (11621)
Aircraft: CESSNA 404 TITAN
(C404)
More flights by this aircraft type
Origin: CYXS Prince George
Canada
Destination: CYVR Vancouver Intl
Canada
More flights between these airports :: More routes between these airports
Route: YXS YWL YPK
File this flight plan on PilotEdge
Remarks:
Altitude:
(Current/Filed)
13,000ft
Speed:
(Current/Filed)
180kts
Departed: 11-Apr-18 06:14 PM
Arrived: 11-Apr-18 07:58 PM
Distance/Time
Traveled:
283nm/1:44
Distance/Time
To Go:
Arrived

Flight Plot

Page will automatically refresh every two minutes.

Flight plan parsing failed; only flown route is shown


Map Options




Map Legend


Flown Route
Filed Route
Departure Airport
Arrival Airport
Navaid (VOR, NDB)
Fix

Horizontal Profiles

Position Reports

Time Latitude Longitude Heading Altitude Ground
Speed
11-Apr-18 18:00 53.884964 -122.685903 78 2229ft 0kts
11-Apr-18 18:01 53.884964 -122.685903 78 2229ft 0kts
11-Apr-18 18:02 53.884964 -122.685903 78 2229ft 0kts
11-Apr-18 18:03 53.884964 -122.685903 78 2229ft 0kts
11-Apr-18 18:04 53.884964 -122.685903 78 2229ft 0kts
11-Apr-18 18:05 53.884964 -122.685903 78 2229ft 0kts
11-Apr-18 18:06 53.884964 -122.685903 78 2229ft 0kts
11-Apr-18 18:07 53.884964 -122.685902 78 2229ft 0kts
11-Apr-18 18:08 53.885274 -122.685611 16 2229ft 0kts
11-Apr-18 18:09 53.885463 -122.685408 46 2229ft 0kts
11-Apr-18 18:10 53.885900 -122.684883 7 2229ft 0kts
11-Apr-18 18:11 53.886620 -122.684724 55 2229ft 13kts
11-Apr-18 18:12 53.887447 -122.677190 72 2229ft 8kts
11-Apr-18 18:13 53.904797 -122.660614 26 2535ft 119kts
11-Apr-18 18:14 53.911282 -122.619718 114 3649ft 118kts
11-Apr-18 18:15 53.912565 -122.557157 99 4747ft 144kts
11-Apr-18 18:16 53.907659 -122.486174 96 5801ft 155kts
11-Apr-18 18:17 53.901146 -122.417802 153 6629ft 157kts
11-Apr-18 18:18 53.875503 -122.473812 259 7355ft 188kts
11-Apr-18 18:19 53.841686 -122.497550 152 8111ft 162kts
11-Apr-18 18:20 53.799322 -122.461121 152 8797ft 171kts
11-Apr-18 18:21 53.754993 -122.434529 166 9492ft 168kts
11-Apr-18 18:22 53.708707 -122.422884 171 10194ft 168kts
11-Apr-18 18:23 53.662079 -122.414185 172 10897ft 168kts
11-Apr-18 18:24 53.615559 -122.405816 173 11595ft 168kts
11-Apr-18 18:25 53.568534 -122.397496 174 12297ft 171kts
11-Apr-18 18:26 53.520828 -122.389085 174 12943ft 175kts
11-Apr-18 18:27 53.469687 -122.380083 174 12997ft 191kts
11-Apr-18 18:28 53.416553 -122.370789 174 12995ft 194kts
11-Apr-18 18:29 53.362948 -122.361387 174 12994ft 193kts
11-Apr-18 18:30 53.318170 -122.353579 174 12994ft 193kts
11-Apr-18 18:31 53.264637 -122.344219 174 12991ft 193kts
11-Apr-18 18:32 53.210883 -122.334937 174 12991ft 193kts
11-Apr-18 18:33 53.157442 -122.325683 174 12991ft 192kts
11-Apr-18 18:34 53.095484 -122.314846 174 12989ft 191kts
11-Apr-18 18:35 53.042513 -122.305726 173 12991ft 191kts
11-Apr-18 18:36 52.989592 -122.296642 173 12995ft 191kts
11-Apr-18 18:37 52.936834 -122.287513 174 12991ft 190kts
11-Apr-18 18:38 52.892968 -122.280095 173 12990ft 189kts
11-Apr-18 18:39 52.840516 -122.271095 173 12993ft 189kts
11-Apr-18 18:40 52.790826 -122.262570 174 12993ft 188kts
11-Apr-18 18:41 52.738557 -122.253728 173 12995ft 188kts
11-Apr-18 18:42 52.686605 -122.244890 173 12996ft 187kts
11-Apr-18 18:43 52.634832 -122.236086 173 12997ft 187kts
11-Apr-18 18:44 52.583002 -122.227368 173 12999ft 186kts
11-Apr-18 18:45 52.531080 -122.218573 173 12997ft 186kts
11-Apr-18 18:46 52.479441 -122.209856 173 13000ft 186kts
11-Apr-18 18:47 52.428007 -122.201253 173 13000ft 185kts
11-Apr-18 18:48 52.376705 -122.192607 173 12999ft 186kts
11-Apr-18 18:49 52.325074 -122.183945 173 12997ft 185kts
11-Apr-18 18:50 52.273745 -122.175342 172 13004ft 185kts
11-Apr-18 18:51 52.222177 -122.172997 182 13001ft 186kts
11-Apr-18 18:52 52.170476 -122.182452 184 13004ft 187kts
11-Apr-18 18:53 52.118509 -122.192327 185 13002ft 187kts
11-Apr-18 18:54 52.066921 -122.202279 184 12999ft 186kts
11-Apr-18 18:55 52.015646 -122.212104 184 13001ft 185kts
11-Apr-18 18:56 51.963640 -122.221994 184 12892ft 188kts
11-Apr-18 18:57 51.911693 -122.231640 184 12891ft 186kts
11-Apr-18 18:58 51.860452 -122.241712 184 12957ft 183kts
11-Apr-18 18:59 51.809521 -122.251050 184 13005ft 186kts
11-Apr-18 19:00 51.757978 -122.260901 184 13003ft 186kts
11-Apr-18 19:01 51.706427 -122.270766 184 13005ft 186kts
11-Apr-18 19:02 51.655057 -122.280477 184 13008ft 186kts
11-Apr-18 19:03 51.603665 -122.290105 184 13009ft 186kts
11-Apr-18 19:04 51.552115 -122.299810 184 13014ft 186kts
11-Apr-18 19:05 51.500570 -122.309270 185 13014ft 185kts
11-Apr-18 19:06 51.449085 -122.318959 184 13003ft 186kts
11-Apr-18 19:07 51.397691 -122.328572 184 13003ft 186kts
11-Apr-18 19:08 51.346323 -122.338007 184 13007ft 186kts
11-Apr-18 19:09 51.294984 -122.347639 184 13011ft 185kts
11-Apr-18 19:10 51.243697 -122.357176 184 13013ft 185kts
11-Apr-18 19:11 51.192349 -122.366636 184 13019ft 186kts
11-Apr-18 19:12 51.140907 -122.376061 184 13022ft 185kts
11-Apr-18 19:13 51.089707 -122.385539 184 12995ft 186kts
11-Apr-18 19:14 51.038204 -122.395032 184 12988ft 185kts
11-Apr-18 19:15 50.986985 -122.404351 184 12993ft 185kts
11-Apr-18 19:16 50.935500 -122.413654 184 12996ft 186kts
11-Apr-18 19:17 50.884075 -122.423093 184 12995ft 186kts
11-Apr-18 19:18 50.832807 -122.432424 184 12998ft 186kts
11-Apr-18 19:19 50.781415 -122.441890 184 13000ft 185kts
11-Apr-18 19:20 50.730101 -122.451183 184 13005ft 185kts
11-Apr-18 19:21 50.678764 -122.460374 184 13005ft 186kts
11-Apr-18 19:22 50.627426 -122.469689 184 13001ft 185kts
11-Apr-18 19:23 50.575909 -122.478855 184 13003ft 185kts
11-Apr-18 19:24 50.524567 -122.488051 184 13005ft 186kts
11-Apr-18 19:25 50.473206 -122.497238 184 13007ft 185kts
11-Apr-18 19:26 50.421823 -122.506435 184 13008ft 186kts
11-Apr-18 19:27 50.370419 -122.515478 184 13011ft 186kts
11-Apr-18 19:28 50.319937 -122.524503 184 13013ft 186kts
11-Apr-18 19:29 50.268221 -122.533729 184 13007ft 189kts
11-Apr-18 19:30 50.216781 -122.542895 184 13015ft 185kts
11-Apr-18 19:31 50.165427 -122.551863 184 13017ft 185kts
11-Apr-18 19:32 50.114154 -122.560965 184 13019ft 185kts
11-Apr-18 19:33 50.062962 -122.569954 184 13022ft 185kts
11-Apr-18 19:34 50.010589 -122.579262 184 12469ft 193kts
11-Apr-18 19:35 49.956755 -122.588640 184 11807ft 195kts
11-Apr-18 19:36 49.916610 -122.595656 184 11312ft 196kts
11-Apr-18 19:37 49.862034 -122.605232 185 10649ft 198kts
11-Apr-18 19:38 49.807116 -122.614685 185 10055ft 197kts
11-Apr-18 19:39 49.754082 -122.623935 185 10024ft 187kts
11-Apr-18 19:40 49.702535 -122.632869 185 9997ft 186kts
11-Apr-18 19:41 49.651326 -122.641634 185 9995ft 184kts
11-Apr-18 19:42 49.600201 -122.649409 179 9904ft 188kts
11-Apr-18 19:43 49.550032 -122.618057 154 9236ft 202kts
11-Apr-18 19:44 49.500231 -122.580635 159 8568ft 196kts
11-Apr-18 19:45 49.452155 -122.543073 186 7813ft 197kts
11-Apr-18 19:46 49.403068 -122.579348 205 7135ft 195kts
11-Apr-18 19:47 49.354955 -122.618730 208 6436ft 196kts
11-Apr-18 19:48 49.307371 -122.658706 204 5530ft 193kts
11-Apr-18 19:49 49.255649 -122.675984 187 4529ft 189kts
11-Apr-18 19:50 49.219015 -122.721020 260 3545ft 192kts
11-Apr-18 19:51 49.215303 -122.796898 259 2622ft 192kts
11-Apr-18 19:52 49.190291 -122.866386 237 2007ft 177kts
11-Apr-18 19:53 49.176625 -122.937446 263 2006ft 175kts
11-Apr-18 19:54 49.181946 -123.011067 285 2007ft 174kts
11-Apr-18 19:55 49.190576 -123.076526 277 1507ft 161kts
11-Apr-18 19:56 49.198246 -123.142228 282 262ft 134kts
11-Apr-18 19:57 49.202964 -123.181385 270 18ft 34kts
11-Apr-18 19:58 49.202502 -123.183513 135 18ft 0kts
11-Apr-18 19:59 49.200774 -123.181632 273 18ft 5kts
11-Apr-18 20:00 49.201622 -123.189228 280 18ft 22kts
11-Apr-18 20:01 49.202308 -123.195066 281 18ft 28kts
11-Apr-18 20:02 49.202509 -123.198942 156 18ft 4kts
11-Apr-18 20:03 49.197163 -123.193514 139 18ft 34kts
11-Apr-18 20:04 49.190878 -123.186006 139 18ft 22kts
11-Apr-18 20:05 49.187397 -123.181778 143 18ft 12kts
11-Apr-18 20:06 49.184613 -123.177357 99 18ft 12kts
11-Apr-18 20:07 49.182670 -123.175480 100 18ft 0kts
11-Apr-18 20:08 49.182670 -123.175480 100 18ft 0kts
11-Apr-18 20:09 49.182670 -123.175480 100 18ft 0kts
11-Apr-18 20:10 49.182670 -123.175480 100 18ft 0kts
11-Apr-18 20:11 49.182670 -123.175480 100 18ft 0kts

Navigation Log

Ident Type
Flight plan parsing failed, navigation log unavailable